sensor_id;sensor_type;location;lat;lon;timestamp;P1;durP1;ratioP1;P2;durP2;ratioP2
75512;SDS011;64090;49.770;18.760;2023-02-26T00:00:22;6.80;;;4.00;;
75512;SDS011;64090;49.770;18.760;2023-02-26T00:04:08;7.20;;;5.20;;
75512;SDS011;64090;49.770;18.760;2023-02-26T00:07:17;5.40;;;4.20;;
75512;SDS011;64090;49.770;18.760;2023-02-26T00:10:44;6.00;;;4.20;;
75512;SDS011;64090;49.770;18.760;2023-02-26T00:14:03;14.10;;;9.00;;
75512;SDS011;64090;49.770;18.760;2023-02-26T00:17:39;16.10;;;9.00;;
75512;SDS011;64090;49.770;18.760;2023-02-26T00:21:05;14.70;;;9.30;;
75512;SDS011;64090;49.770;18.760;2023-02-26T00:24:28;13.10;;;9.40;;
75512;SDS011;64090;49.770;18.760;2023-02-26T00:27:39;14.40;;;9.40;;
75512;SDS011;64090;49.770;18.760;2023-02-26T00:30:52;16.70;;;10.40;;
75512;SDS011;64090;49.770;18.760;2023-02-26T00:34:33;16.70;;;10.40;;
75512;SDS011;64090;49.770;18.760;2023-02-26T00:38:03;20.50;;;12.70;;
75512;SDS011;64090;49.770;18.760;2023-02-26T00:41:28;18.30;;;10.90;;
75512;SDS011;64090;49.770;18.760;2023-02-26T00:44:54;15.40;;;9.40;;
75512;SDS011;64090;49.770;18.760;2023-02-26T00:48:21;20.00;;;11.20;;
75512;SDS011;64090;49.770;18.760;2023-02-26T00:59:34;21.60;;;15.40;;
75512;SDS011;64090;49.770;18.760;2023-02-26T01:03:00;23.10;;;13.50;;
75512;SDS011;64090;49.770;18.760;2023-02-26T01:06:16;20.70;;;13.30;;
75512;SDS011;64090;49.770;18.760;2023-02-26T01:09:32;17.70;;;10.00;;
75512;SDS011;64090;49.770;18.760;2023-02-26T01:12:38;22.40;;;12.40;;
75512;SDS011;64090;49.770;18.760;2023-02-26T01:15:49;21.00;;;11.50;;
75512;SDS011;64090;49.770;18.760;2023-02-26T01:18:59;19.00;;;9.60;;
75512;SDS011;64090;49.770;18.760;2023-02-26T01:22:30;16.70;;;8.70;;
75512;SDS011;64090;49.770;18.760;2023-02-26T01:25:46;6.90;;;4.60;;
75512;SDS011;64090;49.770;18.760;2023-02-26T01:29:07;15.40;;;7.70;;
75512;SDS011;64090;49.770;18.760;2023-02-26T01:32:49;10.60;;;6.30;;
75512;SDS011;64090;49.770;18.760;2023-02-26T01:36:07;17.10;;;8.40;;
75512;SDS011;64090;49.770;18.760;2023-02-26T01:40:20;23.90;;;14.40;;
75512;SDS011;64090;49.770;18.760;2023-02-26T01:43:31;21.10;;;12.30;;
75512;SDS011;64090;49.770;18.760;2023-02-26T01:47:05;8.70;;;5.30;;
75512;SDS011;64090;49.770;18.760;2023-02-26T01:50:28;8.60;;;5.40;;
75512;SDS011;64090;49.770;18.760;2023-02-26T01:53:52;10.10;;;5.50;;
75512;SDS011;64090;49.770;18.760;2023-02-26T01:57:16;15.50;;;9.30;;
75512;SDS011;64090;49.770;18.760;2023-02-26T02:00:44;15.60;;;7.50;;
75512;SDS011;64090;49.770;18.760;2023-02-26T02:04:12;16.50;;;12.70;;
75512;SDS011;64090;49.770;18.760;2023-02-26T02:07:27;9.70;;;6.00;;
75512;SDS011;64090;49.770;18.760;2023-02-26T02:10:50;16.40;;;9.60;;
75512;SDS011;64090;49.770;18.760;2023-02-26T02:18:13;4.10;;;3.10;;
75512;SDS011;64090;49.770;18.760;2023-02-26T02:21:51;8.90;;;4.20;;
75512;SDS011;64090;49.770;18.760;2023-02-26T02:32:33;10.10;;;4.60;;
75512;SDS011;64090;49.770;18.760;2023-02-26T02:35:57;9.80;;;6.20;;
75512;SDS011;64090;49.770;18.760;2023-02-26T02:40:14;8.40;;;5.60;;
75512;SDS011;64090;49.770;18.760;2023-02-26T02:43:32;10.80;;;7.40;;
75512;SDS011;64090;49.770;18.760;2023-02-26T02:46:57;10.10;;;6.70;;
75512;SDS011;64090;49.770;18.760;2023-02-26T02:50:49;9.30;;;4.50;;
75512;SDS011;64090;49.770;18.760;2023-02-26T02:54:17;9.40;;;7.20;;
75512;SDS011;64090;49.770;18.760;2023-02-26T02:57:43;9.80;;;4.40;;
75512;SDS011;64090;49.770;18.760;2023-02-26T03:01:10;10.70;;;7.00;;
75512;SDS011;64090;49.770;18.760;2023-02-26T03:04:33;6.30;;;4.00;;
75512;SDS011;64090;49.770;18.760;2023-02-26T03:08:03;11.80;;;7.10;;
75512;SDS011;64090;49.770;18.760;2023-02-26T03:11:32;13.20;;;8.40;;
75512;SDS011;64090;49.770;18.760;2023-02-26T03:14:58;10.90;;;8.20;;
75512;SDS011;64090;49.770;18.760;2023-02-26T03:22:21;3.50;;;2.40;;
75512;SDS011;64090;49.770;18.760;2023-02-26T03:26:33;11.00;;;5.90;;
75512;SDS011;64090;49.770;18.760;2023-02-26T03:30:21;6.50;;;3.30;;
75512;SDS011;64090;49.770;18.760;2023-02-26T03:34:04;10.30;;;7.00;;
75512;SDS011;64090;49.770;18.760;2023-02-26T03:37:34;12.70;;;6.70;;
75512;SDS011;64090;49.770;18.760;2023-02-26T03:41:06;10.30;;;6.00;;
75512;SDS011;64090;49.770;18.760;2023-02-26T03:44:50;13.80;;;7.40;;
75512;SDS011;64090;49.770;18.760;2023-02-26T03:48:35;15.30;;;9.00;;
75512;SDS011;64090;49.770;18.760;2023-02-26T03:51:43;12.70;;;8.10;;
75512;SDS011;64090;49.770;18.760;2023-02-26T03:55:02;11.00;;;7.50;;
75512;SDS011;64090;49.770;18.760;2023-02-26T03:58:26;5.70;;;3.70;;
75512;SDS011;64090;49.770;18.760;2023-02-26T04:01:53;10.20;;;6.10;;
75512;SDS011;64090;49.770;18.760;2023-02-26T04:05:49;12.30;;;7.80;;
75512;SDS011;64090;49.770;18.760;2023-02-26T04:09:15;11.70;;;8.10;;
75512;SDS011;64090;49.770;18.760;2023-02-26T04:12:39;8.40;;;5.70;;
75512;SDS011;64090;49.770;18.760;2023-02-26T04:16:18;8.60;;;5.70;;
75512;SDS011;64090;49.770;18.760;2023-02-26T04:19:40;8.60;;;5.20;;
75512;SDS011;64090;49.770;18.760;2023-02-26T04:23:00;8.70;;;5.40;;
75512;SDS011;64090;49.770;18.760;2023-02-26T04:26:29;6.40;;;4.20;;
75512;SDS011;64090;49.770;18.760;2023-02-26T04:29:49;8.10;;;5.40;;
75512;SDS011;64090;49.770;18.760;2023-02-26T04:33:14;8.80;;;5.30;;
75512;SDS011;64090;49.770;18.760;2023-02-26T04:36:38;7.20;;;4.90;;
75512;SDS011;64090;49.770;18.760;2023-02-26T04:39:57;6.00;;;5.10;;
75512;SDS011;64090;49.770;18.760;2023-02-26T04:43:05;7.20;;;4.70;;
75512;SDS011;64090;49.770;18.760;2023-02-26T04:46:29;6.20;;;4.60;;
75512;SDS011;64090;49.770;18.760;2023-02-26T04:49:52;5.90;;;4.10;;
75512;SDS011;64090;49.770;18.760;2023-02-26T04:53:20;9.10;;;5.80;;
75512;SDS011;64090;49.770;18.760;2023-02-26T04:56:32;7.00;;;2.80;;
75512;SDS011;64090;49.770;18.760;2023-02-26T05:03:24;6.80;;;5.20;;
75512;SDS011;64090;49.770;18.760;2023-02-26T05:06:43;7.20;;;4.90;;
75512;SDS011;64090;49.770;18.760;2023-02-26T05:09:51;6.50;;;4.60;;
75512;SDS011;64090;49.770;18.760;2023-02-26T05:13:21;10.40;;;6.70;;
75512;SDS011;64090;49.770;18.760;2023-02-26T05:16:45;7.70;;;4.80;;
75512;SDS011;64090;49.770;18.760;2023-02-26T05:20:04;5.80;;;4.60;;
75512;SDS011;64090;49.770;18.760;2023-02-26T05:23:38;9.60;;;4.00;;
75512;SDS011;64090;49.770;18.760;2023-02-26T05:26:43;8.70;;;6.30;;
75512;SDS011;64090;49.770;18.760;2023-02-26T05:30:07;10.60;;;6.20;;
75512;SDS011;64090;49.770;18.760;2023-02-26T05:33:51;6.90;;;4.80;;
75512;SDS011;64090;49.770;18.760;2023-02-26T05:37:17;4.80;;;3.40;;
75512;SDS011;64090;49.770;18.760;2023-02-26T05:40:42;8.80;;;5.40;;
75512;SDS011;64090;49.770;18.760;2023-02-26T05:44:06;8.90;;;6.10;;
75512;SDS011;64090;49.770;18.760;2023-02-26T05:47:26;4.50;;;2.90;;
75512;SDS011;64090;49.770;18.760;2023-02-26T05:50:37;9.20;;;5.60;;
75512;SDS011;64090;49.770;18.760;2023-02-26T05:54:02;7.20;;;5.10;;
75512;SDS011;64090;49.770;18.760;2023-02-26T05:57:14;9.20;;;5.30;;
75512;SDS011;64090;49.770;18.760;2023-02-26T06:00:33;8.30;;;6.10;;
75512;SDS011;64090;49.770;18.760;2023-02-26T06:03:57;8.70;;;5.30;;
75512;SDS011;64090;49.770;18.760;2023-02-26T06:07:28;9.50;;;5.50;;
75512;SDS011;64090;49.770;18.760;2023-02-26T06:10:52;7.40;;;6.50;;
75512;SDS011;64090;49.770;18.760;2023-02-26T06:14:16;9.60;;;5.70;;
75512;SDS011;64090;49.770;18.760;2023-02-26T06:17:40;9.30;;;5.50;;
75512;SDS011;64090;49.770;18.760;2023-02-26T06:20:54;8.30;;;4.40;;
75512;SDS011;64090;49.770;18.760;2023-02-26T06:24:13;9.30;;;6.10;;
75512;SDS011;64090;49.770;18.760;2023-02-26T06:27:37;7.20;;;4.40;;
75512;SDS011;64090;49.770;18.760;2023-02-26T06:30:55;9.00;;;5.00;;
75512;SDS011;64090;49.770;18.760;2023-02-26T06:34:20;8.50;;;4.50;;
75512;SDS011;64090;49.770;18.760;2023-02-26T06:37:31;8.10;;;5.80;;
75512;SDS011;64090;49.770;18.760;2023-02-26T06:40:40;7.40;;;4.60;;
75512;SDS011;64090;49.770;18.760;2023-02-26T06:43:48;9.40;;;4.80;;
75512;SDS011;64090;49.770;18.760;2023-02-26T06:46:52;9.30;;;6.60;;
75512;SDS011;64090;49.770;18.760;2023-02-26T06:50:11;7.80;;;5.30;;
75512;SDS011;64090;49.770;18.760;2023-02-26T06:53:33;9.90;;;5.50;;
75512;SDS011;64090;49.770;18.760;2023-02-26T06:56:45;24.60;;;11.50;;
75512;SDS011;64090;49.770;18.760;2023-02-26T07:00:00;8.30;;;5.60;;
75512;SDS011;64090;49.770;18.760;2023-02-26T07:03:23;14.90;;;6.80;;
75512;SDS011;64090;49.770;18.760;2023-02-26T07:06:34;22.00;;;8.50;;
75512;SDS011;64090;49.770;18.760;2023-02-26T07:09:49;5.80;;;5.10;;
75512;SDS011;64090;49.770;18.760;2023-02-26T07:13:13;8.30;;;5.90;;
75512;SDS011;64090;49.770;18.760;2023-02-26T07:16:23;6.70;;;5.40;;
75512;SDS011;64090;49.770;18.760;2023-02-26T07:19:47;11.30;;;6.70;;
75512;SDS011;64090;49.770;18.760;2023-02-26T07:23:15;12.20;;;5.60;;
75512;SDS011;64090;49.770;18.760;2023-02-26T07:26:28;9.10;;;7.40;;
75512;SDS011;64090;49.770;18.760;2023-02-26T07:29:51;10.10;;;6.10;;
75512;SDS011;64090;49.770;18.760;2023-02-26T07:33:03;9.20;;;5.20;;
75512;SDS011;64090;49.770;18.760;2023-02-26T07:36:28;13.50;;;7.40;;
75512;SDS011;64090;49.770;18.760;2023-02-26T07:39:54;12.30;;;6.30;;
75512;SDS011;64090;49.770;18.760;2023-02-26T07:43:18;12.30;;;6.60;;
75512;SDS011;64090;49.770;18.760;2023-02-26T07:46:42;16.90;;;6.60;;
75512;SDS011;64090;49.770;18.760;2023-02-26T07:50:05;11.20;;;6.50;;
75512;SDS011;64090;49.770;18.760;2023-02-26T07:53:37;8.10;;;6.30;;
75512;SDS011;64090;49.770;18.760;2023-02-26T07:56:44;14.10;;;7.40;;
75512;SDS011;64090;49.770;18.760;2023-02-26T07:59:52;18.50;;;10.20;;
75512;SDS011;64090;49.770;18.760;2023-02-26T08:03:16;12.00;;;6.60;;
75512;SDS011;64090;49.770;18.760;2023-02-26T08:06:27;10.20;;;7.00;;
75512;SDS011;64090;49.770;18.760;2023-02-26T08:09:31;13.60;;;7.80;;
75512;SDS011;64090;49.770;18.760;2023-02-26T08:12:35;8.00;;;5.30;;
75512;SDS011;64090;49.770;18.760;2023-02-26T08:15:47;7.70;;;5.30;;
75512;SDS011;64090;49.770;18.760;2023-02-26T08:19:11;9.30;;;5.80;;
75512;SDS011;64090;49.770;18.760;2023-02-26T08:22:43;8.00;;;5.10;;
75512;SDS011;64090;49.770;18.760;2023-02-26T08:26:07;7.00;;;4.30;;
75512;SDS011;64090;49.770;18.760;2023-02-26T08:29:44;12.70;;;6.90;;
75512;SDS011;64090;49.770;18.760;2023-02-26T08:33:07;12.10;;;7.90;;
75512;SDS011;64090;49.770;18.760;2023-02-26T08:36:27;8.10;;;5.30;;
75512;SDS011;64090;49.770;18.760;2023-02-26T08:39:46;7.30;;;5.10;;
75512;SDS011;64090;49.770;18.760;2023-02-26T08:42:49;6.50;;;4.80;;
75512;SDS011;64090;49.770;18.760;2023-02-26T08:46:15;7.10;;;4.40;;
75512;SDS011;64090;49.770;18.760;2023-02-26T08:49:18;6.30;;;3.10;;
75512;SDS011;64090;49.770;18.760;2023-02-26T08:52:23;6.60;;;4.00;;
75512;SDS011;64090;49.770;18.760;2023-02-26T08:55:27;5.70;;;3.60;;
75512;SDS011;64090;49.770;18.760;2023-02-26T08:58:34;6.50;;;3.80;;
75512;SDS011;64090;49.770;18.760;2023-02-26T09:01:40;6.70;;;5.50;;
75512;SDS011;64090;49.770;18.760;2023-02-26T09:04:48;10.00;;;6.60;;
75512;SDS011;64090;49.770;18.760;2023-02-26T09:08:01;6.60;;;5.20;;
75512;SDS011;64090;49.770;18.760;2023-02-26T09:11:21;6.40;;;4.20;;
75512;SDS011;64090;49.770;18.760;2023-02-26T09:14:41;6.10;;;3.70;;
75512;SDS011;64090;49.770;18.760;2023-02-26T09:18:00;6.90;;;4.20;;
75512;SDS011;64090;49.770;18.760;2023-02-26T09:21:05;5.70;;;4.40;;
75512;SDS011;64090;49.770;18.760;2023-02-26T09:24:15;7.10;;;4.50;;
75512;SDS011;64090;49.770;18.760;2023-02-26T09:27:35;5.60;;;4.00;;
75512;SDS011;64090;49.770;18.760;2023-02-26T09:31:00;5.30;;;3.50;;
75512;SDS011;64090;49.770;18.760;2023-02-26T09:34:03;4.40;;;3.00;;
75512;SDS011;64090;49.770;18.760;2023-02-26T09:37:16;3.70;;;3.10;;
75512;SDS011;64090;49.770;18.760;2023-02-26T09:47:32;3.80;;;3.00;;
75512;SDS011;64090;49.770;18.760;2023-02-26T09:50:47;3.70;;;3.30;;
75512;SDS011;64090;49.770;18.760;2023-02-26T09:54:30;5.40;;;2.40;;
75512;SDS011;64090;49.770;18.760;2023-02-26T09:57:58;6.10;;;3.20;;
75512;SDS011;64090;49.770;18.760;2023-02-26T10:04:52;5.90;;;4.00;;
75512;SDS011;64090;49.770;18.760;2023-02-26T10:08:18;6.10;;;4.00;;
75512;SDS011;64090;49.770;18.760;2023-02-26T10:12:18;3.90;;;3.20;;
75512;SDS011;64090;49.770;18.760;2023-02-26T10:15:43;6.40;;;4.20;;
75512;SDS011;64090;49.770;18.760;2023-02-26T10:18:57;6.10;;;3.70;;
75512;SDS011;64090;49.770;18.760;2023-02-26T10:25:38;7.50;;;3.90;;
75512;SDS011;64090;49.770;18.760;2023-02-26T10:29:19;4.30;;;2.50;;
75512;SDS011;64090;49.770;18.760;2023-02-26T10:32:40;7.20;;;3.70;;
75512;SDS011;64090;49.770;18.760;2023-02-26T10:36:18;3.90;;;3.30;;
75512;SDS011;64090;49.770;18.760;2023-02-26T10:39:58;5.40;;;3.10;;
75512;SDS011;64090;49.770;18.760;2023-02-26T10:50:13;5.80;;;3.60;;
75512;SDS011;64090;49.770;18.760;2023-02-26T10:53:22;6.50;;;3.60;;
75512;SDS011;64090;49.770;18.760;2023-02-26T10:56:31;8.70;;;4.40;;
75512;SDS011;64090;49.770;18.760;2023-02-26T10:59:37;11.30;;;4.00;;
75512;SDS011;64090;49.770;18.760;2023-02-26T11:02:44;7.90;;;4.40;;
75512;SDS011;64090;49.770;18.760;2023-02-26T11:05:50;4.10;;;3.20;;
75512;SDS011;64090;49.770;18.760;2023-02-26T11:08:56;7.40;;;4.60;;
75512;SDS011;64090;49.770;18.760;2023-02-26T11:15:12;5.40;;;3.70;;
75512;SDS011;64090;49.770;18.760;2023-02-26T11:18:24;5.90;;;2.80;;
75512;SDS011;64090;49.770;18.760;2023-02-26T11:21:50;5.00;;;3.80;;
75512;SDS011;64090;49.770;18.760;2023-02-26T11:25:16;6.70;;;3.90;;
75512;SDS011;64090;49.770;18.760;2023-02-26T11:28:30;6.70;;;4.20;;
75512;SDS011;64090;49.770;18.760;2023-02-26T11:34:46;6.50;;;3.90;;
75512;SDS011;64090;49.770;18.760;2023-02-26T11:37:53;3.60;;;2.30;;
75512;SDS011;64090;49.770;18.760;2023-02-26T11:41:18;5.30;;;3.60;;
75512;SDS011;64090;49.770;18.760;2023-02-26T11:44:36;6.80;;;3.50;;
75512;SDS011;64090;49.770;18.760;2023-02-26T11:48:01;3.90;;;2.90;;
75512;SDS011;64090;49.770;18.760;2023-02-26T11:51:18;4.30;;;3.50;;
75512;SDS011;64090;49.770;18.760;2023-02-26T11:54:24;5.00;;;3.80;;
75512;SDS011;64090;49.770;18.760;2023-02-26T11:57:32;6.80;;;3.60;;
75512;SDS011;64090;49.770;18.760;2023-02-26T12:00:58;7.30;;;3.60;;
75512;SDS011;64090;49.770;18.760;2023-02-26T12:04:19;6.10;;;3.80;;
75512;SDS011;64090;49.770;18.760;2023-02-26T12:07:29;6.00;;;3.30;;
75512;SDS011;64090;49.770;18.760;2023-02-26T12:10:51;4.90;;;3.60;;
75512;SDS011;64090;49.770;18.760;2023-02-26T12:14:06;3.50;;;2.40;;
75512;SDS011;64090;49.770;18.760;2023-02-26T12:32:33;4.20;;;3.10;;
75512;SDS011;64090;49.770;18.760;2023-02-26T12:36:10;10.00;;;5.30;;
75512;SDS011;64090;49.770;18.760;2023-02-26T12:39:56;5.70;;;3.70;;
75512;SDS011;64090;49.770;18.760;2023-02-26T12:43:38;3.50;;;2.40;;
75512;SDS011;64090;49.770;18.760;2023-02-26T12:50:54;5.90;;;3.90;;
75512;SDS011;64090;49.770;18.760;2023-02-26T12:57:53;6.20;;;4.50;;
75512;SDS011;64090;49.770;18.760;2023-02-26T13:00:54;6.50;;;4.30;;
75512;SDS011;64090;49.770;18.760;2023-02-26T13:11:39;6.70;;;3.80;;
75512;SDS011;64090;49.770;18.760;2023-02-26T13:18:26;6.00;;;3.10;;
75512;SDS011;64090;49.770;18.760;2023-02-26T13:21:56;22.50;;;11.30;;
75512;SDS011;64090;49.770;18.760;2023-02-26T13:25:18;18.40;;;12.90;;
75512;SDS011;64090;49.770;18.760;2023-02-26T13:28:55;10.10;;;7.10;;
75512;SDS011;64090;49.770;18.760;2023-02-26T13:32:28;11.40;;;8.70;;
75512;SDS011;64090;49.770;18.760;2023-02-26T13:35:38;7.30;;;4.80;;
75512;SDS011;64090;49.770;18.760;2023-02-26T13:39:12;6.80;;;4.80;;
75512;SDS011;64090;49.770;18.760;2023-02-26T13:42:59;11.90;;;7.10;;
75512;SDS011;64090;49.770;18.760;2023-02-26T13:46:20;28.20;;;16.70;;
75512;SDS011;64090;49.770;18.760;2023-02-26T13:49:50;10.20;;;7.00;;
75512;SDS011;64090;49.770;18.760;2023-02-26T13:53:37;10.10;;;5.30;;
75512;SDS011;64090;49.770;18.760;2023-02-26T13:57:35;21.80;;;11.90;;
75512;SDS011;64090;49.770;18.760;2023-02-26T14:01:16;10.00;;;6.20;;
75512;SDS011;64090;49.770;18.760;2023-02-26T14:04:54;7.40;;;5.00;;
75512;SDS011;64090;49.770;18.760;2023-02-26T14:11:45;9.60;;;6.00;;
75512;SDS011;64090;49.770;18.760;2023-02-26T14:15:39;10.80;;;6.90;;
75512;SDS011;64090;49.770;18.760;2023-02-26T14:22:40;14.30;;;7.80;;
75512;SDS011;64090;49.770;18.760;2023-02-26T14:26:05;16.40;;;7.30;;
75512;SDS011;64090;49.770;18.760;2023-02-26T14:29:40;12.50;;;6.80;;
75512;SDS011;64090;49.770;18.760;2023-02-26T14:36:33;12.40;;;6.80;;
75512;SDS011;64090;49.770;18.760;2023-02-26T14:39:58;14.50;;;8.70;;
75512;SDS011;64090;49.770;18.760;2023-02-26T14:43:21;13.40;;;8.40;;
75512;SDS011;64090;49.770;18.760;2023-02-26T14:46:53;11.60;;;8.10;;
75512;SDS011;64090;49.770;18.760;2023-02-26T14:50:05;11.20;;;8.30;;
75512;SDS011;64090;49.770;18.760;2023-02-26T15:08:17;9.00;;;5.20;;
75512;SDS011;64090;49.770;18.760;2023-02-26T15:12:04;6.70;;;4.50;;
75512;SDS011;64090;49.770;18.760;2023-02-26T15:15:51;6.60;;;4.40;;
75512;SDS011;64090;49.770;18.760;2023-02-26T15:22:51;8.40;;;5.40;;
75512;SDS011;64090;49.770;18.760;2023-02-26T15:26:57;7.90;;;5.90;;
75512;SDS011;64090;49.770;18.760;2023-02-26T15:29:45;10.70;;;6.90;;
75512;SDS011;64090;49.770;18.760;2023-02-26T15:33:12;8.60;;;5.40;;
75512;SDS011;64090;49.770;18.760;2023-02-26T15:36:23;9.00;;;5.40;;
75512;SDS011;64090;49.770;18.760;2023-02-26T15:39:32;7.90;;;6.10;;
75512;SDS011;64090;49.770;18.760;2023-02-26T15:42:37;8.70;;;4.90;;
75512;SDS011;64090;49.770;18.760;2023-02-26T15:45:44;8.10;;;5.50;;
75512;SDS011;64090;49.770;18.760;2023-02-26T15:49:02;8.00;;;5.10;;
75512;SDS011;64090;49.770;18.760;2023-02-26T15:52:37;9.80;;;7.30;;
75512;SDS011;64090;49.770;18.760;2023-02-26T15:56:05;11.00;;;7.40;;
75512;SDS011;64090;49.770;18.760;2023-02-26T15:59:18;9.10;;;6.70;;
75512;SDS011;64090;49.770;18.760;2023-02-26T16:02:29;9.70;;;5.50;;
75512;SDS011;64090;49.770;18.760;2023-02-26T16:05:53;15.20;;;10.10;;
75512;SDS011;64090;49.770;18.760;2023-02-26T16:09:16;14.60;;;8.00;;
75512;SDS011;64090;49.770;18.760;2023-02-26T16:12:40;12.00;;;8.40;;
75512;SDS011;64090;49.770;18.760;2023-02-26T16:16:06;13.40;;;7.40;;
75512;SDS011;64090;49.770;18.760;2023-02-26T16:19:18;15.50;;;9.60;;
75512;SDS011;64090;49.770;18.760;2023-02-26T16:22:47;15.40;;;8.00;;
75512;SDS011;64090;49.770;18.760;2023-02-26T16:26:20;15.70;;;9.20;;
75512;SDS011;64090;49.770;18.760;2023-02-26T16:29:52;13.60;;;8.20;;
75512;SDS011;64090;49.770;18.760;2023-02-26T16:33:21;11.40;;;7.30;;
75512;SDS011;64090;49.770;18.760;2023-02-26T16:36:45;9.50;;;6.00;;
75512;SDS011;64090;49.770;18.760;2023-02-26T16:43:33;13.90;;;6.30;;
75512;SDS011;64090;49.770;18.760;2023-02-26T16:50:32;11.20;;;7.80;;
75512;SDS011;64090;49.770;18.760;2023-02-26T16:53:42;10.80;;;6.40;;
75512;SDS011;64090;49.770;18.760;2023-02-26T16:56:58;13.10;;;8.10;;
75512;SDS011;64090;49.770;18.760;2023-02-26T17:00:38;10.90;;;7.20;;
75512;SDS011;64090;49.770;18.760;2023-02-26T17:03:51;12.00;;;6.80;;
75512;SDS011;64090;49.770;18.760;2023-02-26T17:07:34;13.30;;;7.30;;
75512;SDS011;64090;49.770;18.760;2023-02-26T17:11:05;11.20;;;6.60;;
75512;SDS011;64090;49.770;18.760;2023-02-26T17:14:59;14.90;;;7.00;;
75512;SDS011;64090;49.770;18.760;2023-02-26T17:19:01;14.00;;;7.40;;
75512;SDS011;64090;49.770;18.760;2023-02-26T17:22:26;18.60;;;9.50;;
75512;SDS011;64090;49.770;18.760;2023-02-26T17:25:49;15.20;;;9.00;;
75512;SDS011;64090;49.770;18.760;2023-02-26T17:29:21;11.30;;;6.90;;
75512;SDS011;64090;49.770;18.760;2023-02-26T17:32:47;16.70;;;8.30;;
75512;SDS011;64090;49.770;18.760;2023-02-26T17:36:12;12.70;;;8.30;;
75512;SDS011;64090;49.770;18.760;2023-02-26T17:39:35;20.10;;;9.60;;
75512;SDS011;64090;49.770;18.760;2023-02-26T17:42:59;14.70;;;8.30;;
75512;SDS011;64090;49.770;18.760;2023-02-26T17:46:11;15.10;;;8.40;;
75512;SDS011;64090;49.770;18.760;2023-02-26T17:49:36;17.10;;;10.50;;
75512;SDS011;64090;49.770;18.760;2023-02-26T17:52:59;19.90;;;11.90;;
75512;SDS011;64090;49.770;18.760;2023-02-26T18:00:10;21.00;;;13.70;;
75512;SDS011;64090;49.770;18.760;2023-02-26T18:03:37;31.10;;;19.80;;
75512;SDS011;64090;49.770;18.760;2023-02-26T18:06:58;28.30;;;14.90;;
75512;SDS011;64090;49.770;18.760;2023-02-26T18:10:06;22.40;;;12.50;;
75512;SDS011;64090;49.770;18.760;2023-02-26T18:13:32;10.00;;;6.40;;
75512;SDS011;64090;49.770;18.760;2023-02-26T18:16:46;13.30;;;8.40;;
75512;SDS011;64090;49.770;18.760;2023-02-26T18:20:18;14.80;;;10.80;;
75512;SDS011;64090;49.770;18.760;2023-02-26T18:23:24;14.00;;;8.80;;
75512;SDS011;64090;49.770;18.760;2023-02-26T18:26:49;17.00;;;9.50;;
75512;SDS011;64090;49.770;18.760;2023-02-26T18:30:22;17.10;;;10.90;;
75512;SDS011;64090;49.770;18.760;2023-02-26T18:33:50;17.50;;;9.80;;
75512;SDS011;64090;49.770;18.760;2023-02-26T18:37:04;15.80;;;8.70;;
75512;SDS011;64090;49.770;18.760;2023-02-26T18:40:11;15.90;;;10.10;;
75512;SDS011;64090;49.770;18.760;2023-02-26T18:43:35;17.50;;;9.60;;
75512;SDS011;64090;49.770;18.760;2023-02-26T18:46:58;17.90;;;11.30;;
75512;SDS011;64090;49.770;18.760;2023-02-26T18:50:25;15.70;;;9.40;;
75512;SDS011;64090;49.770;18.760;2023-02-26T18:53:33;17.20;;;10.90;;
75512;SDS011;64090;49.770;18.760;2023-02-26T18:57:01;16.10;;;9.40;;
75512;SDS011;64090;49.770;18.760;2023-02-26T19:00:25;20.40;;;10.30;;
75512;SDS011;64090;49.770;18.760;2023-02-26T19:03:52;16.10;;;9.20;;
75512;SDS011;64090;49.770;18.760;2023-02-26T19:07:05;22.00;;;11.50;;
75512;SDS011;64090;49.770;18.760;2023-02-26T19:10:16;13.50;;;7.70;;
75512;SDS011;64090;49.770;18.760;2023-02-26T19:13:31;18.80;;;10.60;;
75512;SDS011;64090;49.770;18.760;2023-02-26T19:17:03;19.50;;;11.70;;
75512;SDS011;64090;49.770;18.760;2023-02-26T19:20:22;18.90;;;12.40;;
75512;SDS011;64090;49.770;18.760;2023-02-26T19:23:35;17.40;;;9.70;;
75512;SDS011;64090;49.770;18.760;2023-02-26T19:26:44;29.40;;;15.00;;
75512;SDS011;64090;49.770;18.760;2023-02-26T19:30:07;23.60;;;13.20;;
75512;SDS011;64090;49.770;18.760;2023-02-26T19:33:20;19.20;;;12.80;;
75512;SDS011;64090;49.770;18.760;2023-02-26T19:36:27;18.30;;;11.50;;
75512;SDS011;64090;49.770;18.760;2023-02-26T19:39:56;23.40;;;13.80;;
75512;SDS011;64090;49.770;18.760;2023-02-26T19:43:22;26.00;;;14.50;;
75512;SDS011;64090;49.770;18.760;2023-02-26T19:46:30;21.40;;;13.30;;
75512;SDS011;64090;49.770;18.760;2023-02-26T19:49:42;20.80;;;11.10;;
75512;SDS011;64090;49.770;18.760;2023-02-26T19:53:13;20.30;;;12.30;;
75512;SDS011;64090;49.770;18.760;2023-02-26T19:56:37;19.50;;;12.60;;
75512;SDS011;64090;49.770;18.760;2023-02-26T19:59:47;19.40;;;12.60;;
75512;SDS011;64090;49.770;18.760;2023-02-26T20:03:15;18.90;;;11.40;;
75512;SDS011;64090;49.770;18.760;2023-02-26T20:06:34;22.20;;;11.50;;
75512;SDS011;64090;49.770;18.760;2023-02-26T20:09:54;22.00;;;11.60;;
75512;SDS011;64090;49.770;18.760;2023-02-26T20:13:26;23.30;;;11.70;;
75512;SDS011;64090;49.770;18.760;2023-02-26T20:16:47;23.60;;;13.10;;
75512;SDS011;64090;49.770;18.760;2023-02-26T20:19:53;27.40;;;15.10;;
75512;SDS011;64090;49.770;18.760;2023-02-26T20:23:18;28.60;;;15.20;;
75512;SDS011;64090;49.770;18.760;2023-02-26T20:26:33;29.60;;;15.10;;
75512;SDS011;64090;49.770;18.760;2023-02-26T20:29:58;32.10;;;16.10;;
75512;SDS011;64090;49.770;18.760;2023-02-26T20:33:17;37.20;;;18.50;;
75512;SDS011;64090;49.770;18.760;2023-02-26T20:36:43;35.80;;;20.30;;
75512;SDS011;64090;49.770;18.760;2023-02-26T20:40:04;32.10;;;18.20;;
75512;SDS011;64090;49.770;18.760;2023-02-26T20:43:28;37.20;;;18.10;;
75512;SDS011;64090;49.770;18.760;2023-02-26T20:46:53;36.80;;;16.90;;
75512;SDS011;64090;49.770;18.760;2023-02-26T20:50:16;36.10;;;19.00;;
75512;SDS011;64090;49.770;18.760;2023-02-26T20:53:40;33.60;;;16.00;;
75512;SDS011;64090;49.770;18.760;2023-02-26T20:56:53;33.00;;;16.00;;
75512;SDS011;64090;49.770;18.760;2023-02-26T21:00:12;34.80;;;18.90;;
75512;SDS011;64090;49.770;18.760;2023-02-26T21:03:35;35.90;;;19.00;;
75512;SDS011;64090;49.770;18.760;2023-02-26T21:06:56;34.50;;;16.40;;
75512;SDS011;64090;49.770;18.760;2023-02-26T21:10:43;30.80;;;15.70;;
75512;SDS011;64090;49.770;18.760;2023-02-26T21:13:48;30.30;;;17.70;;
75512;SDS011;64090;49.770;18.760;2023-02-26T21:17:12;30.30;;;15.20;;
75512;SDS011;64090;49.770;18.760;2023-02-26T21:20:32;28.60;;;17.50;;
75512;SDS011;64090;49.770;18.760;2023-02-26T21:23:53;26.10;;;14.50;;
75512;SDS011;64090;49.770;18.760;2023-02-26T21:27:14;27.10;;;14.00;;
75512;SDS011;64090;49.770;18.760;2023-02-26T21:30:37;27.60;;;13.60;;
75512;SDS011;64090;49.770;18.760;2023-02-26T21:34:00;26.50;;;15.30;;
75512;SDS011;64090;49.770;18.760;2023-02-26T21:37:35;24.10;;;13.00;;
75512;SDS011;64090;49.770;18.760;2023-02-26T21:41:00;21.40;;;12.70;;
75512;SDS011;64090;49.770;18.760;2023-02-26T21:44:07;25.00;;;13.70;;
75512;SDS011;64090;49.770;18.760;2023-02-26T21:47:33;26.20;;;13.60;;
75512;SDS011;64090;49.770;18.760;2023-02-26T21:50:57;21.80;;;12.60;;
75512;SDS011;64090;49.770;18.760;2023-02-26T21:54:13;15.90;;;7.80;;